178-й км

Карта отелей и гостиниц, располагающихся рядом с аэропортом 178-й км :

178-й км Ханты-Мансийский автономный округ - Югра 62° 59' 27.6" N, 60° 57' 59.2812" E
178-й км Ханты-Мансийский автономный округ - Югра 62° 59' 27.6" N, 60° 57' 59.2812" E
Код аэродрома ИКАО
HB3E
Код аэродрома RU
ХБ3Е
Координаты
N62.99100° E060.96647°
Превышение над уровнем моря
162
Основная полоса
15/33
Курс магнитный
147,6/327,6
Длина основной ВПП
20
Ширина основной ВПП
20
Покрытие основной ВПП
Твёрдое
Освещение ВПП
Нет
Тип: 
Вертодром
Класс аэродрома: 
Принадлежность: 
ГА
Статус: 
Действующий
Сайт: 
E-mail аэродрома: 
Страна: 
Россия
Регион: 
Ханты-Мансийский автономный округ - Югра
Город: 
Дополнительная информация: 

Найти трансфер

С помощью этой формы Вы можете найти трансфер из аэропорта 178-й км в город, аэропорт или вокзал:

Карта места

Javascript is required to view this map.

Погода в аэропортах:

Авиационная погода в Мурманске

Регион: 
Погода METAR: 
ULMM 131200Z 09003MPS 9999 -SHSNRA BKN019CB 02/M03 Q1014 R13/090070 NOSIG RMK QFE754
Время наблюдения
2021-04-13T12:00:00Z
Температура C
2.0
Точка росы
-3.0
Направление ветра
90
Скорость ветра (узлы)
6
Метео видимость
6.21
Явления погоды
-SHSN -SHRA
Условия полета
MVFR
Аэропорт подробнее: 

Авиационная погода в Угольном

Регион: 
Погода METAR: 
UHMA 131200Z 36008MPS 4400 -SN DRSN SCT038 BKN047 M13/M14 Q1009 REBLSN RESN R01/////// NOSIG RMK TDZ R01/36008G09MPS END R01/36005G07MPS QFE753/1004
Время наблюдения
2021-04-13T12:00:00Z
Температура C
-13.0
Точка росы
-14.0
Направление ветра
360
Скорость ветра (узлы)
16
Метео видимость
2.73
Явления погоды
-SN DRSN SN
Условия полета
IFR
Аэропорт подробнее: 

Авиационная погода в Иркутске

Регион: 
Погода METAR: 
UIII 131200Z 02008MPS 9000 -SHRA OVC009CB 03/02 Q1014 R30/60D NOSIG RMK QBB270 QFE716/0955
Время наблюдения
2021-04-13T12:00:00Z
Температура C
3.0
Точка росы
2.0
Направление ветра
20
Скорость ветра (узлы)
16
Метео видимость
5.59
Явления погоды
-SHRA
Условия полета
IFR
Аэропорт подробнее: 

Авиационная погода в аэропорту Алыкель

Регион: 
Погода METAR: 
UOOO 131200Z 27009MPS 8000 -SN BLSN BKN008 M04/M05 Q0997 R19/650542 NOSIG RMK QFE732/0976
Время наблюдения
2021-04-13T12:00:00Z
Температура C
-4.0
Точка росы
-5.0
Направление ветра
270
Скорость ветра (узлы)
17
Метео видимость
4.97
Явления погоды
-SN BLSN
Условия полета
IFR
Аэропорт подробнее: